createdAt,value
2022-08-10T00:00:37.864Z,19.60
2022-08-10T00:03:07.787Z,19.60
2022-08-10T00:05:43.152Z,19.60
2022-08-10T00:08:11.157Z,19.70
2022-08-10T00:10:49.765Z,19.70
2022-08-10T00:13:16.760Z,19.60
2022-08-10T00:15:51.842Z,19.60
2022-08-10T00:18:35.196Z,19.60
2022-08-10T00:21:05.580Z,19.60
2022-08-10T00:23:33.286Z,19.40
2022-08-10T00:26:00.575Z,19.40
2022-08-10T00:28:27.648Z,19.40
2022-08-10T00:30:54.695Z,19.30
2022-08-10T00:33:22.114Z,19.20
2022-08-10T00:35:49.507Z,19.40
2022-08-10T00:38:16.502Z,19.40
2022-08-10T00:40:43.687Z,19.50
2022-08-10T00:43:10.709Z,19.50
2022-08-10T00:45:37.711Z,19.40
2022-08-10T00:48:04.852Z,19.30
2022-08-10T00:50:31.948Z,19.30
2022-08-10T00:52:59.333Z,19.40
2022-08-10T00:55:26.924Z,19.20
2022-08-10T00:57:55.603Z,19.20
2022-08-10T01:00:23.943Z,19.20
2022-08-10T01:02:51.669Z,19.20
2022-08-10T01:05:20.478Z,19.10
2022-08-10T01:07:58.560Z,19.20
2022-08-10T01:10:33.691Z,19.30
2022-08-10T01:13:21.861Z,19.20
2022-08-10T01:15:48.907Z,19.20
2022-08-10T01:18:28.390Z,19.20
2022-08-10T01:21:18.059Z,19.20
2022-08-10T01:24:20.037Z,19.10
2022-08-10T01:27:19.306Z,19.20
2022-08-10T01:30:02.310Z,19.10
2022-08-10T01:32:40.906Z,19.10
2022-08-10T01:35:44.666Z,19.10
2022-08-10T01:38:17.144Z,19.00
2022-08-10T01:40:54.584Z,19.00
2022-08-10T01:43:23.619Z,19.00
2022-08-10T01:45:55.747Z,18.90
2022-08-10T01:48:32.881Z,18.70
2022-08-10T01:51:17.666Z,18.80
2022-08-10T01:53:52.114Z,18.80
2022-08-10T01:56:23.074Z,18.80
2022-08-10T01:58:56.975Z,18.80
2022-08-10T02:01:27.701Z,18.80
2022-08-10T02:04:05.463Z,18.80
2022-08-10T02:06:44.619Z,18.80
2022-08-10T02:09:19.865Z,18.90
2022-08-10T02:11:55.704Z,18.90
2022-08-10T02:14:48.106Z,18.80
2022-08-10T02:17:58.211Z,18.60
2022-08-10T02:20:11.219Z,18.60
2022-08-10T02:22:39.808Z,18.40
2022-08-10T02:25:09.096Z,18.20
2022-08-10T02:27:38.651Z,18.10
2022-08-10T02:30:07.135Z,18.30
2022-08-10T02:32:37.940Z,18.10
2022-08-10T02:35:19.385Z,18.10
2022-08-10T02:37:53.096Z,18.00
2022-08-10T02:42:18.288Z,18.10
2022-08-10T02:45:27.247Z,18.10
2022-08-10T02:46:26.891Z,18.20
2022-08-10T02:49:03.255Z,18.10
2022-08-10T02:52:06.813Z,18.20
2022-08-10T02:54:39.616Z,18.10
2022-08-10T02:57:19.189Z,18.20
2022-08-10T02:59:50.548Z,18.10
2022-08-10T03:02:29.348Z,18.20
2022-08-10T03:05:03.198Z,18.10
2022-08-10T03:07:42.908Z,18.10
2022-08-10T03:10:16.652Z,18.00
2022-08-10T03:12:45.691Z,18.00
2022-08-10T03:15:15.516Z,17.70
2022-08-10T03:17:57.707Z,17.70
2022-08-10T03:20:36.611Z,17.60
2022-08-10T03:23:12.918Z,17.60
2022-08-10T03:25:40.615Z,17.60
2022-08-10T03:28:10.774Z,17.60
2022-08-10T03:30:45.544Z,17.40
2022-08-10T03:33:13.919Z,17.30
2022-08-10T03:35:41.175Z,17.30
2022-08-10T03:38:08.177Z,17.30
2022-08-10T03:40:45.538Z,17.20
2022-08-10T03:43:19.327Z,17.20
2022-08-10T03:45:54.672Z,17.20
2022-08-10T03:48:24.471Z,17.20
2022-08-10T03:51:01.507Z,17.20
2022-08-10T03:54:06.155Z,17.10
2022-08-10T03:56:30.546Z,17.10
2022-08-10T03:58:58.739Z,17.10
2022-08-10T04:02:43.146Z,17.10
2022-08-10T04:04:19.206Z,17.00
2022-08-10T04:06:54.619Z,17.00
2022-08-10T04:09:55.930Z,17.00
2022-08-10T04:12:17.230Z,16.90
2022-08-10T04:14:50.982Z,16.70
2022-08-10T04:18:05.221Z,16.70
2022-08-10T04:20:35.002Z,16.60
2022-08-10T04:23:07.799Z,16.60
2022-08-10T04:25:35.783Z,16.70
2022-08-10T04:28:03.688Z,16.80
2022-08-10T04:30:32.773Z,16.60
2022-08-10T04:33:02.367Z,16.80
2022-08-10T04:35:30.358Z,16.90
2022-08-10T04:37:59.534Z,17.10
2022-08-10T04:40:29.709Z,17.00
2022-08-10T04:43:02.126Z,17.00
2022-08-10T04:45:49.717Z,16.90
2022-08-10T04:48:42.206Z,16.70
2022-08-10T04:51:19.204Z,16.60
2022-08-10T04:54:04.022Z,16.70
2022-08-10T04:56:34.456Z,16.60
2022-08-10T04:59:01.446Z,16.70
2022-08-10T05:02:09.932Z,16.80
2022-08-10T05:04:36.023Z,16.80
2022-08-10T05:07:05.434Z,16.80
2022-08-10T05:09:32.488Z,16.80
2022-08-10T05:11:59.492Z,16.90
2022-08-10T05:14:26.545Z,16.90
2022-08-10T05:16:53.458Z,16.90
2022-08-10T05:20:02.033Z,17.00
2022-08-10T05:22:07.379Z,17.10
2022-08-10T05:24:34.308Z,17.20
2022-08-10T05:27:09.522Z,17.40
2022-08-10T05:29:37.925Z,17.40
2022-08-10T05:32:05.466Z,17.50
2022-08-10T05:34:32.407Z,17.50
2022-08-10T05:37:00.256Z,17.60
2022-08-10T05:39:30.336Z,17.60
2022-08-10T05:42:01.902Z,17.70
2022-08-10T05:44:29.893Z,17.70
2022-08-10T05:46:57.307Z,17.80
2022-08-10T05:49:25.077Z,18.00
2022-08-10T05:51:52.674Z,18.10
2022-08-10T05:54:20.184Z,18.20
2022-08-10T05:56:56.807Z,18.30
2022-08-10T06:00:11.182Z,18.40
2022-08-10T06:02:34.929Z,18.50
2022-08-10T06:05:13.730Z,18.60
2022-08-10T06:07:46.721Z,18.70
2022-08-10T06:10:19.642Z,18.70
2022-08-10T06:13:30.280Z,18.70
2022-08-10T06:16:02.596Z,18.80
2022-08-10T06:18:30.155Z,19.00
2022-08-10T06:20:58.139Z,19.00
2022-08-10T06:23:28.374Z,19.10
2022-08-10T06:26:10.293Z,19.30
2022-08-10T06:28:58.222Z,19.40
2022-08-10T06:31:46.715Z,19.50
2022-08-10T06:34:15.604Z,19.60
2022-08-10T06:36:44.589Z,19.80
2022-08-10T06:39:32.536Z,19.90
2022-08-10T06:42:18.327Z,20.00
2022-08-10T06:44:59.496Z,20.10
2022-08-10T06:47:41.818Z,20.10
2022-08-10T06:50:34.866Z,20.20
2022-08-10T06:53:22.121Z,20.30
2022-08-10T06:55:56.446Z,20.50
2022-08-10T06:58:36.876Z,20.50
2022-08-10T07:01:09.066Z,20.60
2022-08-10T07:03:42.748Z,20.70
2022-08-10T07:06:13.959Z,20.90
2022-08-10T07:08:41.888Z,21.00
2022-08-10T07:11:12.206Z,21.10
2022-08-10T07:14:16.247Z,21.30
2022-08-10T07:16:30.267Z,21.30
2022-08-10T07:19:00.389Z,21.40
2022-08-10T07:21:29.851Z,21.50
2022-08-10T07:24:00.786Z,21.70
2022-08-10T07:26:31.271Z,21.70
2022-08-10T07:28:59.336Z,21.80
2022-08-10T07:31:54.377Z,21.90
2022-08-10T07:34:29.489Z,22.10
2022-08-10T07:37:02.363Z,22.20
2022-08-10T07:40:03.821Z,22.30
2022-08-10T07:42:23.309Z,22.60
2022-08-10T07:44:51.364Z,22.80
2022-08-10T07:47:46.114Z,22.90
2022-08-10T07:50:12.904Z,23.00
2022-08-10T07:52:40.439Z,23.20
2022-08-10T07:55:10.384Z,23.30
2022-08-10T07:57:40.272Z,23.40
2022-08-10T08:00:11.049Z,23.50
2022-08-10T08:02:57.658Z,23.70
2022-08-10T08:05:58.988Z,23.90
2022-08-10T08:08:20.040Z,24.10
2022-08-10T08:10:49.191Z,24.00
2022-08-10T08:13:17.671Z,23.90
2022-08-10T08:16:18.526Z,24.00
2022-08-10T08:18:36.963Z,24.10
2022-08-10T08:21:16.030Z,24.20
2022-08-10T08:24:30.561Z,24.30
2022-08-10T08:26:41.537Z,24.50
2022-08-10T08:29:13.761Z,24.70
2022-08-10T08:32:01.792Z,24.90
2022-08-10T08:34:31.670Z,25.00
2022-08-10T08:37:00.920Z,25.20
2022-08-10T08:39:28.609Z,25.50
2022-08-10T08:42:15.588Z,25.70
2022-08-10T08:44:49.759Z,26.00
2022-08-10T08:48:04.688Z,26.20
2022-08-10T08:50:59.516Z,26.20
2022-08-10T08:54:01.613Z,26.50
2022-08-10T08:56:39.748Z,26.60
2022-08-10T08:59:42.423Z,26.70
2022-08-10T09:02:54.454Z,26.90
2022-08-10T09:05:58.661Z,27.00
2022-08-10T09:08:59.851Z,27.00
2022-08-10T09:11:45.752Z,27.20
2022-08-10T09:14:37.223Z,27.20
2022-08-10T09:17:27.557Z,27.40
2022-08-10T09:20:07.347Z,27.50
2022-08-10T09:22:51.683Z,27.60
2022-08-10T09:25:20.624Z,28.10
2022-08-10T09:27:56.010Z,28.20
2022-08-10T09:30:35.711Z,28.20
2022-08-10T09:36:19.798Z,28.30
2022-08-10T09:36:42.102Z,28.40
2022-08-10T09:40:56.231Z,28.50
2022-08-10T09:42:49.768Z,28.60
2022-08-10T09:45:44.539Z,28.70
2022-08-10T09:48:35.168Z,28.70
2022-08-10T09:51:44.668Z,28.70
2022-08-10T09:54:27.631Z,28.50
2022-08-10T09:57:55.258Z,28.80
2022-08-10T10:00:14.860Z,28.70
2022-08-10T10:03:00.339Z,28.30
2022-08-10T10:05:51.942Z,28.20
2022-08-10T10:08:25.087Z,28.30
2022-08-10T10:11:03.334Z,28.40
2022-08-10T10:14:04.366Z,28.20
2022-08-10T10:16:43.905Z,28.40
2022-08-10T10:19:17.424Z,28.90
2022-08-10T10:21:54.639Z,29.40
2022-08-10T10:24:51.163Z,29.60
2022-08-10T10:27:58.194Z,29.60
2022-08-10T10:30:32.113Z,29.90
2022-08-10T10:33:13.249Z,29.30
2022-08-10T10:35:52.170Z,29.40
2022-08-10T10:38:21.619Z,29.60
2022-08-10T10:41:01.486Z,29.50
2022-08-10T10:43:31.347Z,29.40
2022-08-10T10:46:12.635Z,28.90
2022-08-10T10:49:11.557Z,28.90
2022-08-10T10:51:44.824Z,29.00
2022-08-10T10:54:44.999Z,29.10
2022-08-10T10:57:11.782Z,29.00
2022-08-10T11:00:02.378Z,28.90
2022-08-10T11:02:41.437Z,28.80
2022-08-10T11:05:24.345Z,28.90
2022-08-10T11:08:01.640Z,29.20
2022-08-10T11:10:47.677Z,29.20
2022-08-10T11:14:27.235Z,29.10
2022-08-10T11:16:35.879Z,29.20
2022-08-10T11:19:26.342Z,29.00
2022-08-10T11:22:24.880Z,29.10
2022-08-10T11:25:11.694Z,29.60
2022-08-10T11:27:56.627Z,30.00
2022-08-10T11:30:36.456Z,30.00
2022-08-10T11:33:30.843Z,30.10
2022-08-10T11:36:04.129Z,30.30
2022-08-10T11:38:47.161Z,29.90
2022-08-10T11:42:10.195Z,29.50
2022-08-10T11:44:36.603Z,29.40
2022-08-10T11:47:11.040Z,29.30
2022-08-10T11:50:01.899Z,29.40
2022-08-10T11:52:44.772Z,29.40
2022-08-10T11:55:18.888Z,29.40
2022-08-10T11:57:54.150Z,29.70
2022-08-10T12:00:25.290Z,30.10
2022-08-10T12:03:04.788Z,30.70
2022-08-10T12:05:54.448Z,30.50
2022-08-10T12:10:07.123Z,30.40
2022-08-10T12:11:24.624Z,29.90
2022-08-10T12:14:22.625Z,29.70
2022-08-10T12:17:02.019Z,29.90
2022-08-10T12:19:59.364Z,29.90
2022-08-10T12:22:34.245Z,29.90
2022-08-10T12:25:09.345Z,29.70
2022-08-10T12:27:48.315Z,29.80
2022-08-10T12:30:17.132Z,29.90
2022-08-10T12:33:03.296Z,30.20
2022-08-10T12:35:56.036Z,30.40
2022-08-10T12:38:51.992Z,30.90
2022-08-10T12:41:44.892Z,31.50
2022-08-10T12:44:22.405Z,31.70
2022-08-10T12:47:11.818Z,31.90
2022-08-10T12:50:21.638Z,31.30
2022-08-10T12:52:50.170Z,31.10
2022-08-10T12:55:21.669Z,31.40
2022-08-10T12:57:53.910Z,31.20
2022-08-10T13:00:32.738Z,30.90
2022-08-10T13:03:02.073Z,30.80
2022-08-10T13:06:02.587Z,30.70
2022-08-10T13:08:40.322Z,30.70
2022-08-10T13:12:14.257Z,30.20
2022-08-10T13:14:02.414Z,30.00
2022-08-10T13:16:31.839Z,30.20
2022-08-10T13:19:02.040Z,30.60
2022-08-10T13:21:36.027Z,30.80
2022-08-10T13:24:16.287Z,31.00
2022-08-10T13:27:25.857Z,31.10
2022-08-10T13:29:44.012Z,31.10
2022-08-10T13:32:14.347Z,31.00
2022-08-10T13:34:46.536Z,30.80
2022-08-10T13:37:21.372Z,30.90
2022-08-10T13:39:58.187Z,31.00
2022-08-10T13:42:32.582Z,30.70
2022-08-10T13:45:08.800Z,30.60
2022-08-10T13:47:48.598Z,30.80
2022-08-10T13:50:34.539Z,31.00
2022-08-10T13:53:07.713Z,31.00
2022-08-10T13:55:53.763Z,30.90
2022-08-10T13:58:29.425Z,31.20
2022-08-10T14:01:08.211Z,30.90
2022-08-10T14:03:38.853Z,31.10
2022-08-10T14:06:11.449Z,31.10
2022-08-10T14:08:39.448Z,31.50
2022-08-10T14:11:13.538Z,31.90
2022-08-10T14:13:45.664Z,31.70
2022-08-10T14:16:14.138Z,31.40
2022-08-10T14:18:44.893Z,31.30
2022-08-10T14:21:13.739Z,31.50
2022-08-10T14:23:52.337Z,31.70
2022-08-10T14:26:31.185Z,31.70
2022-08-10T14:29:05.322Z,31.60
2022-08-10T14:31:34.936Z,31.00
2022-08-10T14:34:04.450Z,30.80
2022-08-10T14:36:44.880Z,30.70
2022-08-10T14:39:25.437Z,30.50
2022-08-10T14:42:02.843Z,30.20
2022-08-10T14:44:45.114Z,30.20
2022-08-10T14:47:53.244Z,30.30
2022-08-10T14:50:03.497Z,30.10
2022-08-10T14:52:39.474Z,30.40
2022-08-10T14:55:19.039Z,30.60
2022-08-10T14:58:16.955Z,30.80
2022-08-10T15:00:42.788Z,30.50
2022-08-10T15:04:00.768Z,30.60
2022-08-10T15:06:17.251Z,30.80
2022-08-10T15:08:46.862Z,30.60
2022-08-10T15:12:11.931Z,30.60
2022-08-10T15:14:29.332Z,30.90
2022-08-10T15:16:57.932Z,31.20
2022-08-10T15:20:03.002Z,31.50
2022-08-10T15:22:37.027Z,31.50
2022-08-10T15:25:06.804Z,31.50
2022-08-10T15:27:53.877Z,31.00
2022-08-10T15:30:31.726Z,30.40
2022-08-10T15:33:57.398Z,30.40
2022-08-10T15:37:02.148Z,30.80
2022-08-10T15:40:21.433Z,30.70
2022-08-10T15:42:34.179Z,30.50
2022-08-10T15:45:01.991Z,30.40
2022-08-10T15:47:45.633Z,30.60
2022-08-10T15:50:27.942Z,31.00
2022-08-10T15:53:09.978Z,31.10
2022-08-10T15:55:56.781Z,31.20
2022-08-10T15:58:40.447Z,30.90
2022-08-10T16:02:14.322Z,30.60
2022-08-10T16:04:08.966Z,30.70
2022-08-10T16:06:42.867Z,30.90
2022-08-10T16:10:24.136Z,30.80
2022-08-10T16:12:13.369Z,30.80
2022-08-10T16:14:45.292Z,31.00
2022-08-10T16:17:13.524Z,30.80
2022-08-10T16:20:08.050Z,30.50
2022-08-10T16:22:37.451Z,30.40
2022-08-10T16:25:14.148Z,30.50
2022-08-10T16:27:43.023Z,30.70
2022-08-10T16:30:10.317Z,30.70
2022-08-10T16:32:39.672Z,30.90
2022-08-10T16:35:10.278Z,30.70
2022-08-10T16:37:58.179Z,30.60
2022-08-10T16:40:29.475Z,30.50
2022-08-10T16:42:58.678Z,30.20
2022-08-10T16:45:36.778Z,30.30
2022-08-10T16:48:05.745Z,30.50
2022-08-10T16:50:38.640Z,30.40
2022-08-10T16:53:10.049Z,30.60
2022-08-10T16:55:47.628Z,30.70
2022-08-10T16:58:45.757Z,30.80
2022-08-10T17:01:15.340Z,30.50
2022-08-10T17:04:06.623Z,30.40
2022-08-10T17:06:42.095Z,30.50
2022-08-10T17:09:17.077Z,30.70
2022-08-10T17:11:49.138Z,30.70
2022-08-10T17:14:16.508Z,30.60
2022-08-10T17:16:51.302Z,30.60
2022-08-10T17:19:21.685Z,30.70
2022-08-10T17:21:52.748Z,30.90
2022-08-10T17:24:26.771Z,30.90
2022-08-10T17:26:57.884Z,30.90
2022-08-10T17:29:59.225Z,30.90
2022-08-10T17:32:44.064Z,30.90
2022-08-10T17:35:13.777Z,30.80
2022-08-10T17:37:47.549Z,30.50
2022-08-10T17:40:23.453Z,29.90
2022-08-10T17:42:52.290Z,29.40
2022-08-10T17:45:48.439Z,29.20
2022-08-10T17:48:18.634Z,28.90
2022-08-10T17:50:50.340Z,28.80
2022-08-10T17:53:41.997Z,28.70
2022-08-10T17:56:10.667Z,28.70
2022-08-10T17:58:40.989Z,28.70
2022-08-10T18:01:42.130Z,28.50
2022-08-10T18:03:59.379Z,28.50
2022-08-10T18:06:28.455Z,28.50
2022-08-10T18:08:58.847Z,28.30
2022-08-10T18:11:29.015Z,28.10
2022-08-10T18:14:04.740Z,27.90
2022-08-10T18:16:33.964Z,27.90
2022-08-10T18:19:08.037Z,27.90
2022-08-10T18:21:41.391Z,27.70
2022-08-10T18:24:17.710Z,27.50
2022-08-10T18:26:51.737Z,27.40
2022-08-10T18:29:27.149Z,27.30
2022-08-10T18:32:00.533Z,27.30
2022-08-10T18:34:30.163Z,27.20
2022-08-10T18:36:57.590Z,27.00
2022-08-10T18:39:34.027Z,27.00
2022-08-10T18:42:25.706Z,26.80
2022-08-10T18:45:01.034Z,26.70
2022-08-10T18:47:32.976Z,26.60
2022-08-10T18:50:06.103Z,26.30
2022-08-10T18:52:34.767Z,26.10
2022-08-10T18:55:27.123Z,26.00
2022-08-10T18:58:32.696Z,25.80
2022-08-10T19:01:24.693Z,25.80
2022-08-10T19:04:04.491Z,25.50
2022-08-10T19:06:43.708Z,25.40
2022-08-10T19:09:46.275Z,25.30
2022-08-10T19:12:29.941Z,25.20
2022-08-10T19:15:25.739Z,25.20
2022-08-10T19:18:24.430Z,25.10
2022-08-10T19:21:13.002Z,25.00
2022-08-10T19:23:51.843Z,24.80
2022-08-10T19:26:43.723Z,24.70
2022-08-10T19:30:07.953Z,24.60
2022-08-10T19:32:25.133Z,24.50
2022-08-10T19:35:03.908Z,24.50
2022-08-10T19:37:35.371Z,24.50
2022-08-10T19:40:43.519Z,24.30
2022-08-10T19:43:59.955Z,24.20
2022-08-10T19:46:52.435Z,24.10
2022-08-10T19:49:44.244Z,24.00
2022-08-10T19:52:34.174Z,23.90
2022-08-10T19:55:19.201Z,23.80
2022-08-10T19:57:50.603Z,23.60
2022-08-10T20:00:22.828Z,23.60
2022-08-10T20:03:10.785Z,23.50
2022-08-10T20:06:15.338Z,23.50
2022-08-10T20:08:44.486Z,23.40
2022-08-10T20:11:45.503Z,23.30
2022-08-10T20:14:21.377Z,23.30
2022-08-10T20:16:51.685Z,23.30
2022-08-10T20:19:23.139Z,23.30
2022-08-10T20:22:04.600Z,23.30
2022-08-10T20:24:48.300Z,23.30
2022-08-10T20:27:59.961Z,23.10
2022-08-10T20:30:33.228Z,23.00
2022-08-10T20:33:07.769Z,22.90
2022-08-10T20:35:43.534Z,22.90
2022-08-10T20:38:21.154Z,22.80
2022-08-10T20:41:02.913Z,22.70
2022-08-10T20:43:52.814Z,22.60
2022-08-10T20:46:32.046Z,22.60
2022-08-10T20:49:08.264Z,22.50
2022-08-10T20:51:59.020Z,22.50
2022-08-10T20:54:41.443Z,22.30
2022-08-10T20:57:54.922Z,22.10
2022-08-10T21:00:23.095Z,22.10
2022-08-10T21:03:43.878Z,22.00
2022-08-10T21:06:45.867Z,22.00
2022-08-10T21:09:50.615Z,21.90
2022-08-10T21:12:44.250Z,21.80
2022-08-10T21:15:31.456Z,21.80
2022-08-10T21:18:44.953Z,21.70
2022-08-10T21:21:41.902Z,21.60
2022-08-10T21:25:41.793Z,21.60
2022-08-10T21:27:40.226Z,21.50
2022-08-10T21:30:17.559Z,21.40
2022-08-10T21:32:56.100Z,21.30
2022-08-10T21:35:37.041Z,21.20
2022-08-10T21:38:26.419Z,21.10
2022-08-10T21:41:18.052Z,21.00
2022-08-10T21:44:05.432Z,20.90
2022-08-10T21:47:01.639Z,20.80
2022-08-10T21:50:10.560Z,20.70
2022-08-10T21:53:00.863Z,20.80
2022-08-10T21:56:16.470Z,20.70
2022-08-10T21:59:18.598Z,20.60
2022-08-10T22:02:11.766Z,20.50
2022-08-10T22:04:58.188Z,20.40
2022-08-10T22:07:48.080Z,20.40
2022-08-10T22:10:39.182Z,20.50
2022-08-10T22:13:26.012Z,20.50
2022-08-10T22:16:15.472Z,20.50
2022-08-10T22:19:04.367Z,20.70
2022-08-10T22:22:28.062Z,20.70
2022-08-10T22:25:20.875Z,20.60
2022-08-10T22:31:28.961Z,20.50
2022-08-10T22:34:55.045Z,20.20
2022-08-10T22:37:57.378Z,20.10
2022-08-10T22:40:44.065Z,20.30
2022-08-10T22:43:41.469Z,20.40
2022-08-10T22:46:47.415Z,20.40
2022-08-10T22:49:22.113Z,20.20
2022-08-10T22:51:54.349Z,20.10
2022-08-10T22:54:45.868Z,20.00
2022-08-10T22:57:34.305Z,19.90
2022-08-10T23:00:31.049Z,19.90
2022-08-10T23:03:21.530Z,20.00
2022-08-10T23:06:14.599Z,20.10
2022-08-10T23:08:46.952Z,20.10
2022-08-10T23:11:36.469Z,20.10
2022-08-10T23:14:09.663Z,20.10
2022-08-10T23:17:05.970Z,20.00
2022-08-10T23:19:45.715Z,20.10
2022-08-10T23:22:15.550Z,20.20
2022-08-10T23:24:53.199Z,20.20
2022-08-10T23:27:37.901Z,20.00
2022-08-10T23:30:16.978Z,19.90
2022-08-10T23:32:59.140Z,19.70
2022-08-10T23:36:27.175Z,19.60
2022-08-10T23:38:20.567Z,19.60
2022-08-10T23:40:49.657Z,19.40
2022-08-10T23:43:40.783Z,19.20
2022-08-10T23:46:13.958Z,19.20
2022-08-10T23:48:47.022Z,19.30
2022-08-10T23:51:17.385Z,19.30
2022-08-10T23:53:47.154Z,19.20
2022-08-10T23:56:19.832Z,19.00
2022-08-10T23:58:55.211Z,18.90
